createdAt,value
2022-08-28T00:00:15.640Z,99.90
2022-08-28T00:03:09.566Z,99.90
2022-08-28T00:06:02.423Z,99.90
2022-08-28T00:08:55.465Z,99.90
2022-08-28T00:11:48.447Z,99.90
2022-08-28T00:14:41.026Z,99.90
2022-08-28T00:17:33.223Z,99.90
2022-08-28T00:20:27.339Z,99.90
2022-08-28T00:23:20.133Z,99.90
2022-08-28T00:26:32.880Z,99.90
2022-08-28T00:29:25.139Z,99.90
2022-08-28T00:32:17.387Z,99.90
2022-08-28T00:35:09.681Z,99.90
2022-08-28T00:38:02.167Z,99.90
2022-08-28T00:40:59.355Z,99.90
2022-08-28T00:44:04.665Z,99.90
2022-08-28T00:46:59.393Z,99.90
2022-08-28T00:49:54.811Z,99.90
2022-08-28T00:52:49.597Z,99.90
2022-08-28T00:55:42.781Z,99.90
2022-08-28T00:58:35.764Z,99.90
2022-08-28T01:01:28.628Z,99.90
2022-08-28T01:04:22.280Z,99.90
2022-08-28T01:07:15.609Z,99.90
2022-08-28T01:10:11.235Z,99.90
2022-08-28T01:13:03.681Z,99.90
2022-08-28T01:15:58.226Z,99.90
2022-08-28T01:18:52.747Z,99.90
2022-08-28T01:22:20.612Z,99.90
2022-08-28T01:25:17.523Z,99.90
2022-08-28T01:28:13.441Z,99.90
2022-08-28T01:31:06.075Z,99.90
2022-08-28T01:33:59.349Z,99.90
2022-08-28T01:36:51.586Z,99.90
2022-08-28T01:39:43.903Z,99.90
2022-08-28T01:42:42.993Z,99.90
2022-08-28T01:45:37.624Z,99.90
2022-08-28T01:48:31.927Z,99.90
2022-08-28T01:51:24.814Z,99.90
2022-08-28T01:54:17.071Z,99.90
2022-08-28T01:57:09.609Z,99.90
2022-08-28T02:00:01.948Z,99.90
2022-08-28T02:02:56.507Z,99.90
2022-08-28T02:05:48.688Z,99.90
2022-08-28T02:08:41.458Z,99.90
2022-08-28T02:11:33.686Z,99.90
2022-08-28T02:14:25.909Z,99.90
2022-08-28T02:17:18.096Z,99.90
2022-08-28T02:20:11.738Z,99.90
2022-08-28T02:23:04.976Z,99.90
2022-08-28T02:25:57.275Z,99.90
2022-08-28T02:28:53.630Z,99.90
2022-08-28T02:31:45.840Z,99.90
2022-08-28T02:34:39.157Z,99.90
2022-08-28T02:37:31.346Z,99.90
2022-08-28T02:40:26.025Z,99.90
2022-08-28T02:43:18.290Z,99.90
2022-08-28T02:46:10.610Z,99.90
2022-08-28T02:49:02.956Z,99.90
2022-08-28T02:51:56.634Z,99.90
2022-08-28T02:54:48.868Z,99.90
2022-08-28T02:57:42.685Z,99.90
2022-08-28T03:00:35.207Z,99.90
2022-08-28T03:03:31.089Z,99.90
2022-08-28T03:06:23.355Z,99.90
2022-08-28T03:09:15.708Z,99.90
2022-08-28T03:12:10.647Z,99.90
2022-08-28T03:15:03.623Z,99.90
2022-08-28T03:17:56.113Z,99.90
2022-08-28T03:20:48.296Z,99.90
2022-08-28T03:23:40.603Z,99.90
2022-08-28T03:26:33.128Z,99.90
2022-08-28T03:29:28.141Z,99.90
2022-08-28T03:32:20.325Z,99.90
2022-08-28T03:35:12.743Z,99.90
2022-08-28T03:38:05.479Z,99.90
2022-08-28T03:40:57.698Z,99.90
2022-08-28T03:43:50.241Z,99.90
2022-08-28T03:46:42.895Z,99.90
2022-08-28T03:49:35.104Z,99.90
2022-08-28T03:52:27.357Z,99.90
2022-08-28T03:55:20.161Z,99.90
2022-08-28T03:58:18.999Z,99.90
2022-08-28T04:01:11.484Z,99.90
2022-08-28T04:04:04.651Z,99.90
2022-08-28T04:06:57.542Z,99.90
2022-08-28T04:09:49.713Z,99.90
2022-08-28T04:12:41.905Z,99.90
2022-08-28T04:15:34.321Z,99.90
2022-08-28T04:18:27.922Z,99.90
2022-08-28T04:21:23.854Z,99.90
2022-08-28T04:24:16.047Z,99.90
2022-08-28T04:27:08.232Z,99.90
2022-08-28T04:30:00.729Z,99.90
2022-08-28T04:32:52.942Z,99.90
2022-08-28T04:35:45.173Z,99.90
2022-08-28T04:38:42.949Z,99.90
2022-08-28T04:41:39.206Z,99.90
2022-08-28T04:44:32.290Z,99.90
2022-08-28T04:47:24.490Z,99.90
2022-08-28T04:50:16.777Z,99.90
2022-08-28T04:53:09.551Z,99.90
2022-08-28T04:56:05.989Z,99.90
2022-08-28T04:58:58.441Z,99.90
2022-08-28T05:01:50.711Z,99.90
2022-08-28T05:04:42.936Z,99.90
2022-08-28T05:07:35.155Z,99.90
2022-08-28T05:10:27.574Z,99.90
2022-08-28T05:13:20.776Z,99.90
2022-08-28T05:16:13.576Z,99.90
2022-08-28T05:19:06.587Z,99.90
2022-08-28T05:21:59.427Z,99.90
2022-08-28T05:24:51.657Z,99.90
2022-08-28T05:27:43.853Z,99.90
2022-08-28T05:30:37.996Z,99.90
2022-08-28T05:33:30.193Z,99.90
2022-08-28T05:36:26.179Z,99.90
2022-08-28T05:39:25.081Z,99.90
2022-08-28T05:42:17.274Z,99.90
2022-08-28T05:45:10.387Z,99.90
2022-08-28T05:48:02.799Z,99.90
2022-08-28T05:50:54.993Z,99.90
2022-08-28T05:53:49.810Z,99.90
2022-08-28T05:56:44.282Z,99.90
2022-08-28T05:59:37.285Z,99.90
2022-08-28T06:02:29.470Z,99.90
2022-08-28T06:05:21.950Z,99.90
2022-08-28T06:08:14.590Z,99.90
2022-08-28T06:11:07.657Z,99.90
2022-08-28T06:14:02.753Z,99.90
2022-08-28T06:16:56.575Z,99.90
2022-08-28T06:19:49.147Z,99.90
2022-08-28T06:22:41.703Z,99.90
2022-08-28T06:25:41.246Z,99.90
2022-08-28T06:28:36.129Z,99.90
2022-08-28T06:31:33.284Z,99.90
2022-08-28T06:34:26.834Z,99.90
2022-08-28T06:37:19.008Z,99.90
2022-08-28T06:40:11.286Z,99.90
2022-08-28T06:43:03.519Z,99.90
2022-08-28T06:45:58.017Z,99.90
2022-08-28T06:48:50.476Z,99.90
2022-08-28T06:51:42.843Z,99.90
2022-08-28T06:54:35.108Z,99.90
2022-08-28T06:57:27.511Z,99.90
2022-08-28T07:00:19.894Z,99.90
2022-08-28T07:03:12.497Z,99.90
2022-08-28T07:06:07.472Z,99.90
2022-08-28T07:08:59.725Z,99.90
2022-08-28T07:11:52.728Z,99.90
2022-08-28T07:14:44.966Z,99.90
2022-08-28T07:17:38.260Z,99.90
2022-08-28T07:20:30.493Z,99.90
2022-08-28T07:23:22.831Z,99.90
2022-08-28T07:26:19.190Z,99.90
2022-08-28T07:29:12.146Z,99.90
2022-08-28T07:32:04.377Z,99.90
2022-08-28T07:34:57.218Z,99.90
2022-08-28T07:37:50.449Z,99.90
2022-08-28T07:40:42.648Z,99.90
2022-08-28T07:44:12.990Z,99.90
2022-08-28T07:47:06.432Z,99.90
2022-08-28T07:50:01.612Z,99.90
2022-08-28T07:52:53.842Z,99.90
2022-08-28T07:55:46.375Z,99.90
2022-08-28T07:58:38.826Z,99.90
2022-08-28T08:01:31.481Z,99.90
2022-08-28T08:04:25.097Z,99.90
2022-08-28T08:07:18.127Z,99.90
2022-08-28T08:10:14.843Z,99.90
2022-08-28T08:13:12.245Z,99.90
2022-08-28T08:16:19.724Z,99.90
2022-08-28T08:19:15.610Z,99.90
2022-08-28T08:22:07.966Z,99.90
2022-08-28T08:25:00.673Z,99.90
2022-08-28T08:27:53.297Z,99.90
2022-08-28T08:30:45.537Z,99.90
2022-08-28T08:33:39.541Z,99.90
2022-08-28T08:36:34.008Z,99.90
2022-08-28T08:39:26.471Z,99.90
2022-08-28T08:42:25.096Z,99.90
2022-08-28T08:45:22.210Z,99.90
2022-08-28T08:48:32.121Z,99.90
2022-08-28T08:51:39.654Z,99.90
2022-08-28T08:54:31.898Z,99.90
2022-08-28T08:57:24.300Z,99.90
2022-08-28T09:00:17.811Z,99.90
2022-08-28T09:03:15.448Z,99.90
2022-08-28T09:06:20.035Z,99.70
2022-08-28T09:09:21.090Z,97.00
2022-08-28T09:12:23.444Z,95.90
2022-08-28T09:15:25.265Z,99.90
2022-08-28T09:18:25.949Z,99.60
2022-08-28T09:21:30.678Z,99.80
2022-08-28T09:24:33.939Z,99.90
2022-08-28T09:27:31.979Z,99.90
2022-08-28T09:30:33.496Z,99.60
2022-08-28T09:33:41.901Z,99.90
2022-08-28T09:36:38.293Z,98.50
2022-08-28T09:39:33.852Z,98.50
2022-08-28T09:42:44.473Z,97.50
2022-08-28T09:45:37.134Z,98.50
2022-08-28T09:48:38.820Z,97.80
2022-08-28T09:51:31.053Z,98.60
2022-08-28T09:54:39.413Z,98.90
2022-08-28T09:57:31.621Z,99.10
2022-08-28T10:00:24.184Z,99.30
2022-08-28T10:03:26.554Z,98.80
2022-08-28T10:06:35.032Z,99.90
2022-08-28T10:09:39.095Z,99.90
2022-08-28T10:13:17.235Z,98.00
2022-08-28T10:16:35.650Z,98.60
2022-08-28T10:20:14.369Z,97.70
2022-08-28T10:23:51.816Z,99.20
2022-08-28T10:27:18.987Z,99.50
2022-08-28T10:30:17.554Z,99.20
2022-08-28T10:33:23.110Z,98.20
2022-08-28T10:36:50.303Z,98.20
2022-08-28T10:39:59.954Z,98.60
2022-08-28T10:43:19.334Z,97.80
2022-08-28T10:46:23.039Z,98.50
2022-08-28T10:49:23.047Z,97.20
2022-08-28T10:52:34.700Z,97.80
2022-08-28T10:55:58.294Z,96.30
2022-08-28T10:58:55.439Z,95.10
2022-08-28T11:01:47.817Z,96.10
2022-08-28T11:04:40.689Z,96.20
2022-08-28T11:07:41.751Z,96.40
2022-08-28T11:10:36.573Z,97.10
2022-08-28T11:13:41.112Z,97.10
2022-08-28T11:16:33.420Z,97.20
2022-08-28T11:19:43.404Z,97.20
2022-08-28T11:22:42.391Z,96.70
2022-08-28T11:25:40.954Z,95.20
2022-08-28T11:28:36.075Z,96.80
2022-08-28T11:31:33.231Z,98.10
2022-08-28T11:35:00.477Z,98.40
2022-08-28T11:37:54.959Z,96.60
2022-08-28T11:40:56.554Z,98.10
2022-08-28T11:43:52.414Z,99.90
2022-08-28T11:46:52.469Z,99.90
2022-08-28T11:49:45.334Z,99.90
2022-08-28T11:52:51.943Z,99.90
2022-08-28T11:55:58.323Z,99.90
2022-08-28T11:59:15.794Z,99.90
2022-08-28T12:02:44.068Z,99.90
2022-08-28T12:05:44.309Z,99.90
2022-08-28T12:08:51.179Z,99.90
2022-08-28T12:11:43.621Z,99.90
2022-08-28T12:14:38.872Z,99.90
2022-08-28T12:17:43.704Z,99.90
2022-08-28T12:20:39.161Z,99.90
2022-08-28T12:23:40.266Z,99.90
2022-08-28T12:26:39.929Z,99.90
2022-08-28T12:29:37.553Z,99.90
2022-08-28T12:32:44.661Z,99.90
2022-08-28T12:35:37.174Z,99.90
2022-08-28T12:38:32.950Z,99.90
2022-08-28T12:41:25.451Z,99.90
2022-08-28T12:44:26.971Z,99.90
2022-08-28T12:47:22.924Z,99.90
2022-08-28T12:50:41.024Z,99.90
2022-08-28T12:53:43.472Z,99.90
2022-08-28T12:56:38.302Z,99.90
2022-08-28T12:59:43.836Z,99.90
2022-08-28T13:02:36.196Z,99.90
2022-08-28T13:05:35.959Z,99.90
2022-08-28T13:08:28.874Z,99.90
2022-08-28T13:11:21.124Z,99.90
2022-08-28T13:14:13.492Z,99.90
2022-08-28T13:17:05.855Z,99.90
2022-08-28T13:20:07.462Z,99.90
2022-08-28T13:23:01.558Z,99.90
2022-08-28T13:26:05.047Z,99.90
2022-08-28T13:28:59.384Z,99.90
2022-08-28T13:32:04.362Z,99.90
2022-08-28T13:35:39.956Z,99.90
2022-08-28T13:38:32.174Z,99.90
2022-08-28T13:41:24.469Z,99.90
2022-08-28T13:44:56.785Z,99.90
2022-08-28T13:47:49.030Z,99.90
2022-08-28T13:50:46.899Z,99.90
2022-08-28T13:53:39.966Z,99.90
2022-08-28T13:56:32.245Z,99.90
2022-08-28T13:59:24.617Z,99.90
2022-08-28T14:02:35.413Z,99.90
2022-08-28T14:05:28.165Z,99.90
2022-08-28T14:08:20.667Z,99.90
2022-08-28T14:11:15.163Z,99.90
2022-08-28T14:14:08.074Z,99.90
2022-08-28T14:17:01.388Z,99.90
2022-08-28T14:19:53.750Z,99.90
2022-08-28T14:22:46.206Z,99.90
2022-08-28T14:25:43.895Z,99.90
2022-08-28T14:28:36.101Z,99.90
2022-08-28T14:31:30.147Z,99.90
2022-08-28T14:34:23.368Z,99.90
2022-08-28T14:37:16.074Z,99.90
2022-08-28T14:40:10.093Z,99.90
2022-08-28T14:43:02.380Z,99.90
2022-08-28T14:45:54.698Z,99.90
2022-08-28T14:48:48.040Z,99.90
2022-08-28T14:51:42.416Z,99.90
2022-08-28T14:54:34.707Z,99.90
2022-08-28T14:57:26.955Z,99.90
2022-08-28T15:00:19.321Z,99.90
2022-08-28T15:03:12.442Z,99.90
2022-08-28T15:06:07.937Z,99.90
2022-08-28T15:09:00.814Z,99.90
2022-08-28T15:11:53.427Z,99.90
2022-08-28T15:14:55.158Z,99.90
2022-08-28T15:17:49.601Z,99.90
2022-08-28T15:20:46.509Z,99.90
2022-08-28T15:23:38.850Z,99.90
2022-08-28T15:26:36.668Z,99.90
2022-08-28T15:29:30.026Z,99.90
2022-08-28T15:32:22.318Z,99.90
2022-08-28T15:35:16.020Z,99.90
2022-08-28T15:38:08.789Z,99.90
2022-08-28T15:41:19.643Z,99.90
2022-08-28T15:44:15.054Z,99.90
2022-08-28T15:47:08.430Z,99.90
2022-08-28T15:50:01.267Z,99.90
2022-08-28T15:52:53.587Z,99.90
2022-08-28T15:55:45.893Z,99.90
2022-08-28T15:58:39.259Z,99.90
2022-08-28T16:01:31.432Z,99.90
2022-08-28T16:04:23.707Z,99.90
2022-08-28T16:07:17.343Z,99.90
2022-08-28T16:10:13.411Z,99.90
2022-08-28T16:13:06.729Z,99.90
2022-08-28T16:15:59.652Z,99.90
2022-08-28T16:18:51.981Z,99.90
2022-08-28T16:21:44.247Z,99.90
2022-08-28T16:24:37.719Z,99.90
2022-08-28T16:27:30.600Z,99.90
2022-08-28T16:30:24.416Z,99.90
2022-08-28T16:33:20.142Z,99.90
2022-08-28T16:36:17.318Z,99.90
2022-08-28T16:39:11.633Z,99.90
2022-08-28T16:42:04.560Z,99.90
2022-08-28T16:44:57.483Z,99.90
2022-08-28T16:47:49.998Z,99.90
2022-08-28T16:50:43.489Z,99.90
2022-08-28T16:53:35.823Z,99.90
2022-08-28T16:56:28.287Z,99.90
2022-08-28T16:59:23.315Z,99.90
2022-08-28T17:02:17.125Z,99.90
2022-08-28T17:05:10.357Z,99.90
2022-08-28T17:08:02.668Z,99.90
2022-08-28T17:10:55.827Z,99.90
2022-08-28T17:13:51.040Z,99.90
2022-08-28T17:16:43.244Z,99.90
2022-08-28T17:19:36.397Z,99.90
2022-08-28T17:22:32.985Z,99.90
2022-08-28T17:25:26.091Z,99.90
2022-08-28T17:28:18.426Z,99.90
2022-08-28T17:31:11.817Z,99.90
2022-08-28T17:34:05.661Z,99.90
2022-08-28T17:36:57.895Z,99.90
2022-08-28T17:39:50.126Z,99.90
2022-08-28T17:42:45.580Z,99.90
2022-08-28T17:45:37.935Z,99.90
2022-08-28T17:48:31.652Z,99.90
2022-08-28T17:51:43.070Z,99.90
2022-08-28T17:54:36.174Z,99.90
2022-08-28T17:57:30.679Z,99.90
2022-08-28T18:00:22.980Z,99.90
2022-08-28T18:03:15.572Z,99.90
2022-08-28T18:06:07.781Z,99.90
2022-08-28T18:09:00.463Z,99.90
2022-08-28T18:11:52.993Z,99.90
2022-08-28T18:14:45.303Z,99.90
2022-08-28T18:17:38.497Z,99.90
2022-08-28T18:20:30.678Z,99.90
2022-08-28T18:23:22.890Z,99.90
2022-08-28T18:26:17.526Z,99.90
2022-08-28T18:29:10.761Z,99.90
2022-08-28T18:32:04.658Z,99.90
2022-08-28T18:34:56.829Z,99.90
2022-08-28T18:37:49.630Z,99.90
2022-08-28T18:40:45.932Z,99.90
2022-08-28T18:43:38.183Z,99.90
2022-08-28T18:46:31.114Z,99.90
2022-08-28T18:49:24.483Z,99.90
2022-08-28T18:52:16.664Z,99.90
2022-08-28T18:55:10.817Z,99.90
2022-08-28T18:58:03.049Z,99.90
2022-08-28T19:00:55.449Z,99.90
2022-08-28T19:03:47.742Z,99.90
2022-08-28T19:06:40.753Z,99.90
2022-08-28T19:09:34.916Z,99.90
2022-08-28T19:12:27.355Z,99.90
2022-08-28T19:15:19.640Z,99.90
2022-08-28T19:18:11.850Z,99.90
2022-08-28T19:21:09.814Z,99.90
2022-08-28T19:24:07.675Z,99.90
2022-08-28T19:27:00.837Z,99.90
2022-08-28T19:29:53.016Z,99.90
2022-08-28T19:32:46.699Z,99.90
2022-08-28T19:35:40.149Z,99.90
2022-08-28T19:38:32.665Z,99.90
2022-08-28T19:41:26.437Z,99.90
2022-08-28T19:44:18.771Z,99.90
2022-08-28T19:47:11.179Z,99.90
2022-08-28T19:50:05.150Z,99.90
2022-08-28T19:52:57.755Z,99.90
2022-08-28T19:55:50.149Z,99.90
2022-08-28T19:58:42.534Z,99.90
2022-08-28T20:01:41.101Z,99.90
2022-08-28T20:04:33.397Z,99.90
2022-08-28T20:07:25.690Z,99.90
2022-08-28T20:10:18.550Z,99.90
2022-08-28T20:13:11.142Z,99.90
2022-08-28T20:16:05.136Z,99.90
2022-08-28T20:19:02.021Z,99.90
2022-08-28T20:21:54.666Z,99.90
2022-08-28T20:24:47.436Z,99.90
2022-08-28T20:27:39.792Z,99.90
2022-08-28T20:30:32.020Z,99.90
2022-08-28T20:33:24.389Z,99.90
2022-08-28T20:36:21.382Z,99.90
2022-08-28T20:39:14.855Z,99.90
2022-08-28T20:42:07.653Z,99.90
2022-08-28T20:44:59.840Z,99.90
2022-08-28T20:47:52.014Z,99.90
2022-08-28T20:50:44.248Z,99.90
2022-08-28T20:53:36.969Z,99.90
2022-08-28T20:56:29.841Z,99.90
2022-08-28T20:59:22.390Z,99.90
2022-08-28T21:02:19.413Z,99.90
2022-08-28T21:05:11.854Z,99.90
2022-08-28T21:08:04.185Z,99.90
2022-08-28T21:10:56.357Z,99.90
2022-08-28T21:13:48.601Z,99.90
2022-08-28T21:16:43.815Z,99.90
2022-08-28T21:19:40.624Z,99.90
2022-08-28T21:22:35.365Z,99.90
2022-08-28T21:25:28.297Z,99.90
2022-08-28T21:28:20.793Z,99.90
2022-08-28T21:31:14.678Z,99.90
2022-08-28T21:34:09.329Z,99.90
2022-08-28T21:37:01.518Z,99.90
2022-08-28T21:39:56.319Z,99.90
2022-08-28T21:42:49.113Z,99.90
2022-08-28T21:45:41.734Z,99.90
2022-08-28T21:48:36.205Z,99.90
2022-08-28T21:51:28.385Z,99.90
2022-08-28T21:54:23.079Z,99.90
2022-08-28T21:57:16.258Z,99.90
2022-08-28T22:00:12.321Z,99.90
2022-08-28T22:03:04.535Z,99.90
2022-08-28T22:05:57.587Z,99.90
2022-08-28T22:08:51.020Z,99.90
2022-08-28T22:11:43.358Z,99.90
2022-08-28T22:14:37.091Z,99.90
2022-08-28T22:17:29.652Z,99.90
2022-08-28T22:20:21.871Z,99.90
2022-08-28T22:23:14.060Z,99.90
2022-08-28T22:26:09.929Z,99.90
2022-08-28T22:29:02.488Z,99.90
2022-08-28T22:31:54.706Z,99.90
2022-08-28T22:34:47.038Z,99.90
2022-08-28T22:37:39.455Z,99.90
2022-08-28T22:40:32.658Z,99.90
2022-08-28T22:43:24.973Z,99.90
2022-08-28T22:46:18.906Z,99.90
2022-08-28T22:49:11.154Z,99.90
2022-08-28T22:52:03.655Z,99.90
2022-08-28T22:54:55.830Z,99.90
2022-08-28T22:57:48.033Z,99.90
2022-08-28T23:00:42.195Z,99.90
2022-08-28T23:03:35.001Z,99.90
2022-08-28T23:06:27.488Z,99.90
2022-08-28T23:09:22.699Z,99.90
2022-08-28T23:12:14.900Z,99.90
2022-08-28T23:15:10.581Z,99.90
2022-08-28T23:18:02.817Z,99.90
2022-08-28T23:20:56.395Z,99.90
2022-08-28T23:23:51.567Z,99.90
2022-08-28T23:26:45.381Z,99.90
2022-08-28T23:29:37.558Z,99.90
2022-08-28T23:32:29.726Z,99.90
2022-08-28T23:35:22.708Z,99.90
2022-08-28T23:38:15.008Z,99.90
2022-08-28T23:41:08.183Z,99.90
2022-08-28T23:44:03.136Z,99.90
2022-08-28T23:46:57.828Z,99.90
2022-08-28T23:49:50.615Z,99.90
2022-08-28T23:52:43.195Z,99.90
2022-08-28T23:55:37.032Z,99.90
2022-08-28T23:58:31.972Z,99.90
